Aérodrome :
LOGIN :

S'inscrire | Disclaimer

   EN    FR    IT 

 










Légende :    VFR   VFR Marginal   IFR   IFR Intensif   IFR Très Intensif
Visi : 
Plafond : 
>= 8 km
>= 3000ft
5 à 8 km
1000 à 3000 ft
1500m à 5 km
500 à 1000 ft
800 à 1500m
200 à 500 ft
< 800m
< 200 ft
Symboles :   Orages  Brouillard  Fortes neiges  Fortes précipitations  Vent > 20 kt
SIGMETs :   Divers  Orages  Givrage  Turbulence  Onde Orograph.  Cendres Volcan.







- Altitude de l'aérodrome : 2096 ft
- Code IATA : AUR
- Voir les cartes d'approche


LFLW - Aurillac

DERNIER METAR :
  • 161830Z AUTO 09003KT 9000 3800 NSC 09/07 Q1021

METARs EXPIRÉS :
  • 161800Z AUTO 11003KT 8000 2600 NSC 09/07 Q1021
  • 161730Z AUTO 11003KT 6000 1800 NSC 11/08 Q1021
  • 161700Z AUTO VRB02KT CAVOK 11/07 Q1021 NOSIG
  • 161630Z AUTO 12001KT CAVOK 13/07 Q1021 NOSIG
  • 161600Z AUTO VRB02KT CAVOK 14/08 Q1021 NOSIG

TAF TAF LFLW
Valide du 16 à 15h jusqu'au 17 à 00h UTC


161400Z 1615/1624 18005KT CAVOK
Pas de NOTAMs connus pour ce terrain.



MET'MAP, la Météo Aéronautique d'un coup d'oeil ! - Copyright ORBIFLY Décembre 2007 - Disclaimer

ORBIFLY MET'MAP TEAM :

Programmation & Développement : Alexandra Zaïnal
Conception & Développement : Baudouin d'Aumeries
Co-Programmation & Développement : Marc-Olivier Méhu
Soutien technique & logistique : Manuel Goepfert

Contact : metmap@orbifly.com




SOURCES & CREDITS :

   NOAA